sensor_id;sensor_type;location;lat;lon;timestamp;temperature;humidity
23311;DHT22;11828;51.508;18.118;2023-08-01T00:00:02;33.50;33.80
23311;DHT22;11828;51.508;18.118;2023-08-01T00:02:31;33.40;33.90
23311;DHT22;11828;51.508;18.118;2023-08-01T00:04:57;33.30;34.00
23311;DHT22;11828;51.508;18.118;2023-08-01T00:07:25;33.40;34.00
23311;DHT22;11828;51.508;18.118;2023-08-01T00:09:52;33.40;34.00
23311;DHT22;11828;51.508;18.118;2023-08-01T00:12:19;33.30;34.00
23311;DHT22;11828;51.508;18.118;2023-08-01T00:14:45;33.30;33.90
23311;DHT22;11828;51.508;18.118;2023-08-01T00:17:11;33.40;34.00
23311;DHT22;11828;51.508;18.118;2023-08-01T00:19:37;33.30;33.90
23311;DHT22;11828;51.508;18.118;2023-08-01T00:22:03;33.40;33.90
23311;DHT22;11828;51.508;18.118;2023-08-01T00:24:30;33.30;33.90
23311;DHT22;11828;51.508;18.118;2023-08-01T00:26:56;33.20;34.00
23311;DHT22;11828;51.508;18.118;2023-08-01T00:29:22;33.20;34.20
23311;DHT22;11828;51.508;18.118;2023-08-01T00:31:48;33.10;34.30
23311;DHT22;11828;51.508;18.118;2023-08-01T00:34:15;33.10;35.00
23311;DHT22;11828;51.508;18.118;2023-08-01T00:36:41;33.00;34.40
23311;DHT22;11828;51.508;18.118;2023-08-01T00:39:07;33.10;34.40
23311;DHT22;11828;51.508;18.118;2023-08-01T00:41:35;33.10;34.40
23311;DHT22;11828;51.508;18.118;2023-08-01T00:44:01;33.20;34.40
23311;DHT22;11828;51.508;18.118;2023-08-01T00:46:27;33.20;34.40
23311;DHT22;11828;51.508;18.118;2023-08-01T00:48:56;33.10;34.40
23311;DHT22;11828;51.508;18.118;2023-08-01T00:51:24;33.00;34.50
23311;DHT22;11828;51.508;18.118;2023-08-01T00:53:51;32.90;34.60
23311;DHT22;11828;51.508;18.118;2023-08-01T00:56:17;32.90;34.70
23311;DHT22;11828;51.508;18.118;2023-08-01T00:58:44;32.90;34.70
23311;DHT22;11828;51.508;18.118;2023-08-01T01:01:10;32.90;34.80
23311;DHT22;11828;51.508;18.118;2023-08-01T01:03:36;32.80;34.80
23311;DHT22;11828;51.508;18.118;2023-08-01T01:06:24;32.80;34.80
23311;DHT22;11828;51.508;18.118;2023-08-01T01:08:55;32.80;35.00
23311;DHT22;11828;51.508;18.118;2023-08-01T01:11:22;32.80;35.00
23311;DHT22;11828;51.508;18.118;2023-08-01T01:13:48;32.80;35.00
23311;DHT22;11828;51.508;18.118;2023-08-01T01:16:15;32.80;35.00
23311;DHT22;11828;51.508;18.118;2023-08-01T01:18:42;32.70;35.20
23311;DHT22;11828;51.508;18.118;2023-08-01T01:21:08;32.80;35.20
23311;DHT22;11828;51.508;18.118;2023-08-01T01:23:34;32.70;35.30
23311;DHT22;11828;51.508;18.118;2023-08-01T01:26:01;32.70;35.30
23311;DHT22;11828;51.508;18.118;2023-08-01T01:28:48;32.60;35.20
23311;DHT22;11828;51.508;18.118;2023-08-01T01:31:15;32.70;35.20
23311;DHT22;11828;51.508;18.118;2023-08-01T01:33:42;32.70;35.20
23311;DHT22;11828;51.508;18.118;2023-08-01T01:36:08;32.70;35.10
23311;DHT22;11828;51.508;18.118;2023-08-01T01:38:34;32.70;35.00
23311;DHT22;11828;51.508;18.118;2023-08-01T01:41:00;32.70;35.20
23311;DHT22;11828;51.508;18.118;2023-08-01T01:43:27;32.60;35.10
23311;DHT22;11828;51.508;18.118;2023-08-01T01:45:53;32.70;35.30
23311;DHT22;11828;51.508;18.118;2023-08-01T01:48:19;32.70;35.30
23311;DHT22;11828;51.508;18.118;2023-08-01T01:50:45;32.70;35.30
23311;DHT22;11828;51.508;18.118;2023-08-01T01:53:11;32.70;35.30
23311;DHT22;11828;51.508;18.118;2023-08-01T01:55:37;32.70;35.40
23311;DHT22;11828;51.508;18.118;2023-08-01T01:58:04;32.70;35.40
23311;DHT22;11828;51.508;18.118;2023-08-01T02:00:30;32.60;35.50
23311;DHT22;11828;51.508;18.118;2023-08-01T02:02:56;32.60;35.40
23311;DHT22;11828;51.508;18.118;2023-08-01T02:05:23;32.50;35.50
23311;DHT22;11828;51.508;18.118;2023-08-01T02:07:49;32.50;35.60
23311;DHT22;11828;51.508;18.118;2023-08-01T02:10:16;32.50;35.70
23311;DHT22;11828;51.508;18.118;2023-08-01T02:12:42;32.50;35.70
23311;DHT22;11828;51.508;18.118;2023-08-01T02:15:08;32.60;35.70
23311;DHT22;11828;51.508;18.118;2023-08-01T02:17:35;32.60;35.60
23311;DHT22;11828;51.508;18.118;2023-08-01T02:20:01;32.60;35.70
23311;DHT22;11828;51.508;18.118;2023-08-01T02:22:28;32.60;35.60
23311;DHT22;11828;51.508;18.118;2023-08-01T02:24:55;32.60;35.50
23311;DHT22;11828;51.508;18.118;2023-08-01T02:27:21;32.70;35.40
23311;DHT22;11828;51.508;18.118;2023-08-01T02:29:47;32.70;35.40
23311;DHT22;11828;51.508;18.118;2023-08-01T02:32:16;32.70;35.40
23311;DHT22;11828;51.508;18.118;2023-08-01T02:34:42;32.70;35.20
23311;DHT22;11828;51.508;18.118;2023-08-01T02:37:09;32.70;35.10
23311;DHT22;11828;51.508;18.118;2023-08-01T02:39:35;32.80;35.20
23311;DHT22;11828;51.508;18.118;2023-08-01T02:42:01;32.70;35.00
23311;DHT22;11828;51.508;18.118;2023-08-01T02:44:29;32.70;35.10
23311;DHT22;11828;51.508;18.118;2023-08-01T02:46:55;32.70;35.30
23311;DHT22;11828;51.508;18.118;2023-08-01T02:49:21;32.70;35.40
23311;DHT22;11828;51.508;18.118;2023-08-01T02:51:47;32.60;35.40
23311;DHT22;11828;51.508;18.118;2023-08-01T02:54:14;32.50;35.60
23311;DHT22;11828;51.508;18.118;2023-08-01T02:56:40;32.50;35.60
23311;DHT22;11828;51.508;18.118;2023-08-01T02:59:10;32.30;35.70
23311;DHT22;11828;51.508;18.118;2023-08-01T03:01:37;32.20;35.90
23311;DHT22;11828;51.508;18.118;2023-08-01T03:04:05;32.10;36.10
23311;DHT22;11828;51.508;18.118;2023-08-01T03:06:32;32.10;36.20
23311;DHT22;11828;51.508;18.118;2023-08-01T03:08:59;32.00;36.30
23311;DHT22;11828;51.508;18.118;2023-08-01T03:11:26;31.90;36.40
23311;DHT22;11828;51.508;18.118;2023-08-01T03:13:52;31.80;36.40
23311;DHT22;11828;51.508;18.118;2023-08-01T03:16:18;31.80;36.40
23311;DHT22;11828;51.508;18.118;2023-08-01T03:18:44;31.90;36.40
23311;DHT22;11828;51.508;18.118;2023-08-01T03:21:11;31.90;36.40
23311;DHT22;11828;51.508;18.118;2023-08-01T03:23:37;31.90;36.40
23311;DHT22;11828;51.508;18.118;2023-08-01T03:26:03;32.00;36.40
23311;DHT22;11828;51.508;18.118;2023-08-01T03:28:30;32.00;36.40
23311;DHT22;11828;51.508;18.118;2023-08-01T03:30:56;32.00;36.30
23311;DHT22;11828;51.508;18.118;2023-08-01T03:33:22;31.90;36.40
23311;DHT22;11828;51.508;18.118;2023-08-01T03:35:49;31.90;36.40
23311;DHT22;11828;51.508;18.118;2023-08-01T03:38:15;31.90;36.30
23311;DHT22;11828;51.508;18.118;2023-08-01T03:40:41;31.90;36.30
23311;DHT22;11828;51.508;18.118;2023-08-01T03:43:07;31.90;36.40
23311;DHT22;11828;51.508;18.118;2023-08-01T03:45:35;31.80;36.50
23311;DHT22;11828;51.508;18.118;2023-08-01T03:48:01;31.70;36.60
23311;DHT22;11828;51.508;18.118;2023-08-01T03:50:28;31.70;36.70
23311;DHT22;11828;51.508;18.118;2023-08-01T03:52:54;31.60;36.80
23311;DHT22;11828;51.508;18.118;2023-08-01T03:55:20;31.60;37.00
23311;DHT22;11828;51.508;18.118;2023-08-01T03:57:46;31.50;36.90
23311;DHT22;11828;51.508;18.118;2023-08-01T04:00:31;31.50;37.00
23311;DHT22;11828;51.508;18.118;2023-08-01T04:03:00;31.40;37.10
23311;DHT22;11828;51.508;18.118;2023-08-01T04:05:28;31.40;37.30
23311;DHT22;11828;51.508;18.118;2023-08-01T04:07:54;31.40;37.30
23311;DHT22;11828;51.508;18.118;2023-08-01T04:10:23;31.50;37.40
23311;DHT22;11828;51.508;18.118;2023-08-01T04:13:09;31.30;37.20
23311;DHT22;11828;51.508;18.118;2023-08-01T04:15:53;31.30;37.50
23311;DHT22;11828;51.508;18.118;2023-08-01T04:18:20;31.30;37.30
23311;DHT22;11828;51.508;18.118;2023-08-01T04:20:46;31.30;37.30
23311;DHT22;11828;51.508;18.118;2023-08-01T04:23:12;31.40;37.30
23311;DHT22;11828;51.508;18.118;2023-08-01T04:25:40;31.40;37.20
23311;DHT22;11828;51.508;18.118;2023-08-01T04:28:07;31.50;37.20
23311;DHT22;11828;51.508;18.118;2023-08-01T04:30:32;31.60;37.10
23311;DHT22;11828;51.508;18.118;2023-08-01T04:32:59;31.70;36.90
23311;DHT22;11828;51.508;18.118;2023-08-01T04:35:25;31.80;36.70
23311;DHT22;11828;51.508;18.118;2023-08-01T04:37:51;31.80;36.50
23311;DHT22;11828;51.508;18.118;2023-08-01T04:40:17;31.90;36.30
23311;DHT22;11828;51.508;18.118;2023-08-01T04:42:43;32.10;36.10
23311;DHT22;11828;51.508;18.118;2023-08-01T04:45:09;32.10;35.70
23311;DHT22;11828;51.508;18.118;2023-08-01T04:47:35;32.10;35.60
23311;DHT22;11828;51.508;18.118;2023-08-01T04:50:02;32.30;35.50
23311;DHT22;11828;51.508;18.118;2023-08-01T04:52:28;32.30;35.20
23311;DHT22;11828;51.508;18.118;2023-08-01T04:54:54;32.20;35.40
23311;DHT22;11828;51.508;18.118;2023-08-01T04:57:20;32.10;35.10
23311;DHT22;11828;51.508;18.118;2023-08-01T04:59:46;32.20;35.20
23311;DHT22;11828;51.508;18.118;2023-08-01T05:02:12;32.10;35.00
23311;DHT22;11828;51.508;18.118;2023-08-01T05:04:39;32.10;34.90
23311;DHT22;11828;51.508;18.118;2023-08-01T05:07:05;32.10;35.20
23311;DHT22;11828;51.508;18.118;2023-08-01T05:09:32;32.10;35.20
23311;DHT22;11828;51.508;18.118;2023-08-01T05:11:59;32.20;35.10
23311;DHT22;11828;51.508;18.118;2023-08-01T05:14:25;32.20;35.00
23311;DHT22;11828;51.508;18.118;2023-08-01T05:16:51;32.20;35.00
23311;DHT22;11828;51.508;18.118;2023-08-01T05:19:17;32.20;34.80
23311;DHT22;11828;51.508;18.118;2023-08-01T05:21:43;32.10;34.90
23311;DHT22;11828;51.508;18.118;2023-08-01T05:24:09;32.20;35.00
23311;DHT22;11828;51.508;18.118;2023-08-01T05:26:36;32.10;34.90
23311;DHT22;11828;51.508;18.118;2023-08-01T05:29:02;32.20;35.00
23311;DHT22;11828;51.508;18.118;2023-08-01T05:31:29;32.30;34.90
23311;DHT22;11828;51.508;18.118;2023-08-01T05:33:56;32.30;34.90
23311;DHT22;11828;51.508;18.118;2023-08-01T05:36:22;32.40;35.00
23311;DHT22;11828;51.508;18.118;2023-08-01T05:38:48;32.50;34.90
23311;DHT22;11828;51.508;18.118;2023-08-01T05:41:14;32.60;34.80
23311;DHT22;11828;51.508;18.118;2023-08-01T05:43:41;32.50;35.10
23311;DHT22;11828;51.508;18.118;2023-08-01T05:46:06;32.60;35.20
23311;DHT22;11828;51.508;18.118;2023-08-01T05:48:33;32.60;35.40
23311;DHT22;11828;51.508;18.118;2023-08-01T05:50:59;32.70;35.60
23311;DHT22;11828;51.508;18.118;2023-08-01T05:53:25;32.70;35.80
23311;DHT22;11828;51.508;18.118;2023-08-01T05:55:53;32.70;36.10
23311;DHT22;11828;51.508;18.118;2023-08-01T05:58:19;32.70;35.90
23311;DHT22;11828;51.508;18.118;2023-08-01T06:01:05;32.80;36.00
23311;DHT22;11828;51.508;18.118;2023-08-01T06:03:50;32.70;36.10
23311;DHT22;11828;51.508;18.118;2023-08-01T06:06:34;32.60;36.20
23311;DHT22;11828;51.508;18.118;2023-08-01T06:09:01;32.70;36.60
23311;DHT22;11828;51.508;18.118;2023-08-01T06:11:28;32.60;36.70
23311;DHT22;11828;51.508;18.118;2023-08-01T06:13:55;32.60;36.90
23311;DHT22;11828;51.508;18.118;2023-08-01T06:16:21;32.60;37.10
23311;DHT22;11828;51.508;18.118;2023-08-01T06:18:47;32.40;37.00
23311;DHT22;11828;51.508;18.118;2023-08-01T06:21:13;32.30;37.30
23311;DHT22;11828;51.508;18.118;2023-08-01T06:23:39;32.20;37.70
23311;DHT22;11828;51.508;18.118;2023-08-01T06:26:06;32.20;37.70
23311;DHT22;11828;51.508;18.118;2023-08-01T06:28:32;32.20;37.90
23311;DHT22;11828;51.508;18.118;2023-08-01T06:30:58;32.10;38.00
23311;DHT22;11828;51.508;18.118;2023-08-01T06:33:25;32.10;38.30
23311;DHT22;11828;51.508;18.118;2023-08-01T06:35:51;32.10;38.30
23311;DHT22;11828;51.508;18.118;2023-08-01T06:38:17;32.20;38.80
23311;DHT22;11828;51.508;18.118;2023-08-01T06:40:43;32.10;39.00
23311;DHT22;11828;51.508;18.118;2023-08-01T06:43:10;32.10;39.10
23311;DHT22;11828;51.508;18.118;2023-08-01T06:45:36;32.10;39.00
23311;DHT22;11828;51.508;18.118;2023-08-01T06:48:03;32.10;39.20
23311;DHT22;11828;51.508;18.118;2023-08-01T06:50:29;32.10;39.20
23311;DHT22;11828;51.508;18.118;2023-08-01T06:52:55;31.90;39.20
23311;DHT22;11828;51.508;18.118;2023-08-01T06:55:21;32.00;39.40
23311;DHT22;11828;51.508;18.118;2023-08-01T06:57:48;31.90;39.40
23311;DHT22;11828;51.508;18.118;2023-08-01T07:00:14;31.90;39.60
23311;DHT22;11828;51.508;18.118;2023-08-01T07:02:41;31.90;39.70
23311;DHT22;11828;51.508;18.118;2023-08-01T07:05:08;31.80;39.80
23311;DHT22;11828;51.508;18.118;2023-08-01T07:07:34;31.80;40.00
23311;DHT22;11828;51.508;18.118;2023-08-01T07:10:00;31.80;39.90
23311;DHT22;11828;51.508;18.118;2023-08-01T07:12:27;31.90;39.90
23311;DHT22;11828;51.508;18.118;2023-08-01T07:14:53;31.90;40.20
23311;DHT22;11828;51.508;18.118;2023-08-01T07:17:19;32.10;40.10
23311;DHT22;11828;51.508;18.118;2023-08-01T07:19:45;32.20;40.10
23311;DHT22;11828;51.508;18.118;2023-08-01T07:22:11;32.20;39.90
23311;DHT22;11828;51.508;18.118;2023-08-01T07:24:38;32.20;40.00
23311;DHT22;11828;51.508;18.118;2023-08-01T07:27:04;32.20;40.20
23311;DHT22;11828;51.508;18.118;2023-08-01T07:29:30;32.30;40.40
23311;DHT22;11828;51.508;18.118;2023-08-01T07:31:57;32.30;40.60
23311;DHT22;11828;51.508;18.118;2023-08-01T07:34:23;32.30;40.60
23311;DHT22;11828;51.508;18.118;2023-08-01T07:36:49;32.30;40.70
23311;DHT22;11828;51.508;18.118;2023-08-01T07:39:16;32.30;40.30
23311;DHT22;11828;51.508;18.118;2023-08-01T07:41:43;32.30;40.50
23311;DHT22;11828;51.508;18.118;2023-08-01T07:44:09;32.20;40.30
23311;DHT22;11828;51.508;18.118;2023-08-01T07:46:35;32.20;40.50
23311;DHT22;11828;51.508;18.118;2023-08-01T07:49:01;32.10;41.00
23311;DHT22;11828;51.508;18.118;2023-08-01T07:51:28;32.00;41.60
23311;DHT22;11828;51.508;18.118;2023-08-01T07:54:15;31.90;41.00
23311;DHT22;11828;51.508;18.118;2023-08-01T07:56:42;31.90;41.40
23311;DHT22;11828;51.508;18.118;2023-08-01T07:59:09;31.90;41.50
23311;DHT22;11828;51.508;18.118;2023-08-01T08:01:36;31.90;41.80
23311;DHT22;11828;51.508;18.118;2023-08-01T08:04:02;31.70;41.60
23311;DHT22;11828;51.508;18.118;2023-08-01T08:06:28;31.70;41.60
23311;DHT22;11828;51.508;18.118;2023-08-01T08:08:54;31.60;42.00
23311;DHT22;11828;51.508;18.118;2023-08-01T08:11:20;31.60;42.40
23311;DHT22;11828;51.508;18.118;2023-08-01T08:13:46;31.60;42.80
23311;DHT22;11828;51.508;18.118;2023-08-01T08:16:13;31.60;42.70
23311;DHT22;11828;51.508;18.118;2023-08-01T08:18:39;31.50;43.10
23311;DHT22;11828;51.508;18.118;2023-08-01T08:21:05;31.50;43.30
23311;DHT22;11828;51.508;18.118;2023-08-01T08:23:31;31.60;43.20
23311;DHT22;11828;51.508;18.118;2023-08-01T08:25:58;31.70;42.90
23311;DHT22;11828;51.508;18.118;2023-08-01T08:28:29;31.60;43.10
23311;DHT22;11828;51.508;18.118;2023-08-01T08:30:57;31.60;43.10
23311;DHT22;11828;51.508;18.118;2023-08-01T08:33:23;31.10;42.90
23311;DHT22;11828;51.508;18.118;2023-08-01T08:35:50;31.60;43.50
23311;DHT22;11828;51.508;18.118;2023-08-01T08:38:17;31.70;43.30
23311;DHT22;11828;51.508;18.118;2023-08-01T08:43:23;31.70;42.90
23311;DHT22;11828;51.508;18.118;2023-08-01T08:45:55;31.70;43.30
23311;DHT22;11828;51.508;18.118;2023-08-01T08:48:23;31.70;43.20
23311;DHT22;11828;51.508;18.118;2023-08-01T08:50:52;31.80;43.10
23311;DHT22;11828;51.508;18.118;2023-08-01T08:53:20;31.80;42.80
23311;DHT22;11828;51.508;18.118;2023-08-01T08:55:48;31.90;42.90
23311;DHT22;11828;51.508;18.118;2023-08-01T08:58:16;31.90;42.50
23311;DHT22;11828;51.508;18.118;2023-08-01T09:00:44;31.90;42.60
23311;DHT22;11828;51.508;18.118;2023-08-01T09:03:10;32.10;42.30
23311;DHT22;11828;51.508;18.118;2023-08-01T09:06:02;32.20;42.10
23311;DHT22;11828;51.508;18.118;2023-08-01T09:08:32;32.20;42.20
23311;DHT22;11828;51.508;18.118;2023-08-01T09:11:02;32.30;41.80
23311;DHT22;11828;51.508;18.118;2023-08-01T09:13:29;32.20;41.40
23311;DHT22;11828;51.508;18.118;2023-08-01T09:15:56;32.20;41.00
23311;DHT22;11828;51.508;18.118;2023-08-01T09:18:22;32.30;41.20
23311;DHT22;11828;51.508;18.118;2023-08-01T09:20:49;32.50;41.10
23311;DHT22;11828;51.508;18.118;2023-08-01T09:23:16;32.50;40.80
23311;DHT22;11828;51.508;18.118;2023-08-01T09:25:43;32.80;40.80
23311;DHT22;11828;51.508;18.118;2023-08-01T09:28:23;32.90;40.60
23311;DHT22;11828;51.508;18.118;2023-08-01T09:30:51;32.90;40.20
23311;DHT22;11828;51.508;18.118;2023-08-01T09:33:20;33.00;39.80
23311;DHT22;11828;51.508;18.118;2023-08-01T09:35:49;33.10;39.90
23311;DHT22;11828;51.508;18.118;2023-08-01T09:38:16;33.40;39.80
23311;DHT22;11828;51.508;18.118;2023-08-01T09:40:44;33.50;39.10
23311;DHT22;11828;51.508;18.118;2023-08-01T09:43:11;33.60;38.60
23311;DHT22;11828;51.508;18.118;2023-08-01T09:45:52;33.60;38.10
23311;DHT22;11828;51.508;18.118;2023-08-01T09:48:26;33.50;38.30
23311;DHT22;11828;51.508;18.118;2023-08-01T09:51:06;33.50;37.90
23311;DHT22;11828;51.508;18.118;2023-08-01T09:53:53;33.30;38.00
23311;DHT22;11828;51.508;18.118;2023-08-01T09:58:56;33.40;38.10
23311;DHT22;11828;51.508;18.118;2023-08-01T10:01:23;33.40;38.10
23311;DHT22;11828;51.508;18.118;2023-08-01T10:03:53;33.40;37.80
23311;DHT22;11828;51.508;18.118;2023-08-01T10:06:30;33.40;37.90
23311;DHT22;11828;51.508;18.118;2023-08-01T10:08:58;33.40;37.90
23311;DHT22;11828;51.508;18.118;2023-08-01T10:11:26;33.50;38.40
23311;DHT22;11828;51.508;18.118;2023-08-01T10:14:14;33.50;37.80
23311;DHT22;11828;51.508;18.118;2023-08-01T10:16:42;33.60;37.30
23311;DHT22;11828;51.508;18.118;2023-08-01T10:19:09;33.70;37.40
23311;DHT22;11828;51.508;18.118;2023-08-01T10:21:38;33.90;37.00
23311;DHT22;11828;51.508;18.118;2023-08-01T10:24:06;34.10;36.20
23311;DHT22;11828;51.508;18.118;2023-08-01T10:26:33;34.20;35.90
23311;DHT22;11828;51.508;18.118;2023-08-01T10:29:00;34.30;35.50
23311;DHT22;11828;51.508;18.118;2023-08-01T10:31:28;34.30;35.70
23311;DHT22;11828;51.508;18.118;2023-08-01T10:34:04;34.40;35.80
23311;DHT22;11828;51.508;18.118;2023-08-01T10:36:32;34.40;35.80
23311;DHT22;11828;51.508;18.118;2023-08-01T10:39:00;34.60;35.80
23311;DHT22;11828;51.508;18.118;2023-08-01T10:41:31;34.70;35.70
23311;DHT22;11828;51.508;18.118;2023-08-01T10:44:24;34.80;35.40
23311;DHT22;11828;51.508;18.118;2023-08-01T10:47:02;34.80;35.30
23311;DHT22;11828;51.508;18.118;2023-08-01T10:49:40;34.70;34.90
23311;DHT22;11828;51.508;18.118;2023-08-01T10:52:25;34.80;34.80
23311;DHT22;11828;51.508;18.118;2023-08-01T10:55:04;34.80;34.50
23311;DHT22;11828;51.508;18.118;2023-08-01T10:57:34;34.80;34.80
23311;DHT22;11828;51.508;18.118;2023-08-01T11:00:01;34.90;34.40
23311;DHT22;11828;51.508;18.118;2023-08-01T11:02:30;34.90;34.40
23311;DHT22;11828;51.508;18.118;2023-08-01T11:05:03;34.70;34.80
23311;DHT22;11828;51.508;18.118;2023-08-01T11:07:32;34.50;35.20
23311;DHT22;11828;51.508;18.118;2023-08-01T11:10:10;34.40;35.50
23311;DHT22;11828;51.508;18.118;2023-08-01T11:12:41;34.30;35.40
23311;DHT22;11828;51.508;18.118;2023-08-01T11:15:10;34.30;35.70
23311;DHT22;11828;51.508;18.118;2023-08-01T11:17:38;34.30;35.60
23311;DHT22;11828;51.508;18.118;2023-08-01T11:20:12;34.20;35.60
23311;DHT22;11828;51.508;18.118;2023-08-01T11:22:52;34.10;35.90
23311;DHT22;11828;51.508;18.118;2023-08-01T11:25:40;34.10;36.30
23311;DHT22;11828;51.508;18.118;2023-08-01T11:28:11;34.10;36.20
23311;DHT22;11828;51.508;18.118;2023-08-01T11:30:40;34.00;36.40
23311;DHT22;11828;51.508;18.118;2023-08-01T11:33:33;34.10;36.60
23311;DHT22;11828;51.508;18.118;2023-08-01T11:35:59;34.10;36.10
23311;DHT22;11828;51.508;18.118;2023-08-01T11:38:27;34.10;36.10
23311;DHT22;11828;51.508;18.118;2023-08-01T11:40:59;34.10;36.50
23311;DHT22;11828;51.508;18.118;2023-08-01T11:43:26;34.00;44.00
23311;DHT22;11828;51.508;18.118;2023-08-01T11:45:56;33.90;37.00
23311;DHT22;11828;51.508;18.118;2023-08-01T11:48:24;33.80;37.10
23311;DHT22;11828;51.508;18.118;2023-08-01T11:50:58;33.80;38.40
23311;DHT22;11828;51.508;18.118;2023-08-01T11:53:25;33.70;37.60
23311;DHT22;11828;51.508;18.118;2023-08-01T11:55:52;33.70;38.00
23311;DHT22;11828;51.508;18.118;2023-08-01T11:58:35;33.70;38.20
23311;DHT22;11828;51.508;18.118;2023-08-01T12:01:10;33.70;39.10
23311;DHT22;11828;51.508;18.118;2023-08-01T12:03:51;33.60;41.30
23311;DHT22;11828;51.508;18.118;2023-08-01T12:06:19;33.60;48.10
23311;DHT22;11828;51.508;18.118;2023-08-01T12:08:49;33.50;39.30
23311;DHT22;11828;51.508;18.118;2023-08-01T12:11:26;33.50;39.20
23311;DHT22;11828;51.508;18.118;2023-08-01T12:14:08;33.40;39.80
23311;DHT22;11828;51.508;18.118;2023-08-01T12:16:40;33.30;39.80
23311;DHT22;11828;51.508;18.118;2023-08-01T12:19:09;33.30;40.00
23311;DHT22;11828;51.508;18.118;2023-08-01T12:21:35;33.20;40.50
23311;DHT22;11828;51.508;18.118;2023-08-01T12:24:02;33.30;40.70
23311;DHT22;11828;51.508;18.118;2023-08-01T12:26:28;33.00;40.60
23311;DHT22;11828;51.508;18.118;2023-08-01T12:28:55;32.90;40.30
23311;DHT22;11828;51.508;18.118;2023-08-01T12:31:22;33.00;40.70
23311;DHT22;11828;51.508;18.118;2023-08-01T12:33:49;33.00;41.10
23311;DHT22;11828;51.508;18.118;2023-08-01T12:36:18;33.00;41.40
23311;DHT22;11828;51.508;18.118;2023-08-01T12:38:45;32.90;41.70
23311;DHT22;11828;51.508;18.118;2023-08-01T12:41:11;32.80;42.20
23311;DHT22;11828;51.508;18.118;2023-08-01T12:43:37;33.00;42.50
23311;DHT22;11828;51.508;18.118;2023-08-01T12:46:03;32.90;42.70
23311;DHT22;11828;51.508;18.118;2023-08-01T12:48:30;32.90;42.80
23311;DHT22;11828;51.508;18.118;2023-08-01T12:50:56;32.80;43.10
23311;DHT22;11828;51.508;18.118;2023-08-01T12:53:22;32.80;43.10
23311;DHT22;11828;51.508;18.118;2023-08-01T12:55:50;32.90;42.50
23311;DHT22;11828;51.508;18.118;2023-08-01T12:58:17;32.90;42.20
23311;DHT22;11828;51.508;18.118;2023-08-01T13:00:44;32.70;42.00
23311;DHT22;11828;51.508;18.118;2023-08-01T13:03:11;32.60;42.00
23311;DHT22;11828;51.508;18.118;2023-08-01T13:05:39;32.60;41.90
23311;DHT22;11828;51.508;18.118;2023-08-01T13:08:06;32.70;41.70
23311;DHT22;11828;51.508;18.118;2023-08-01T13:10:34;32.80;41.70
23311;DHT22;11828;51.508;18.118;2023-08-01T13:13:02;32.90;41.60
23311;DHT22;11828;51.508;18.118;2023-08-01T13:15:29;33.00;41.20
23311;DHT22;11828;51.508;18.118;2023-08-01T13:17:55;33.10;41.10
23311;DHT22;11828;51.508;18.118;2023-08-01T13:20:22;33.10;41.00
23311;DHT22;11828;51.508;18.118;2023-08-01T13:22:50;33.30;41.20
23311;DHT22;11828;51.508;18.118;2023-08-01T13:25:18;33.30;41.10
23311;DHT22;11828;51.508;18.118;2023-08-01T13:27:44;33.40;40.70
23311;DHT22;11828;51.508;18.118;2023-08-01T13:30:10;33.60;40.70
23311;DHT22;11828;51.508;18.118;2023-08-01T13:32:40;33.70;40.40
23311;DHT22;11828;51.508;18.118;2023-08-01T13:35:07;33.80;40.20
23311;DHT22;11828;51.508;18.118;2023-08-01T13:37:33;33.70;39.60
23311;DHT22;11828;51.508;18.118;2023-08-01T13:40:00;33.70;39.80
23311;DHT22;11828;51.508;18.118;2023-08-01T13:42:27;33.80;39.70
23311;DHT22;11828;51.508;18.118;2023-08-01T13:44:56;33.80;39.30
23311;DHT22;11828;51.508;18.118;2023-08-01T13:47:23;33.90;38.80
23311;DHT22;11828;51.508;18.118;2023-08-01T13:49:49;33.90;38.70
23311;DHT22;11828;51.508;18.118;2023-08-01T13:52:15;34.10;38.60
23311;DHT22;11828;51.508;18.118;2023-08-01T13:54:41;34.20;38.50
23311;DHT22;11828;51.508;18.118;2023-08-01T13:57:08;34.20;38.20
23311;DHT22;11828;51.508;18.118;2023-08-01T13:59:34;34.40;38.00
23311;DHT22;11828;51.508;18.118;2023-08-01T14:02:00;34.30;37.10
23311;DHT22;11828;51.508;18.118;2023-08-01T14:04:27;34.30;37.00
23311;DHT22;11828;51.508;18.118;2023-08-01T14:07:11;34.30;36.90
23311;DHT22;11828;51.508;18.118;2023-08-01T14:09:37;34.30;36.80
23311;DHT22;11828;51.508;18.118;2023-08-01T14:12:04;34.40;36.90
23311;DHT22;11828;51.508;18.118;2023-08-01T14:14:31;34.60;36.40
23311;DHT22;11828;51.508;18.118;2023-08-01T14:16:57;34.90;36.10
23311;DHT22;11828;51.508;18.118;2023-08-01T14:19:24;35.20;35.70
23311;DHT22;11828;51.508;18.118;2023-08-01T14:21:56;35.60;35.10
23311;DHT22;11828;51.508;18.118;2023-08-01T14:24:24;35.90;34.00
23311;DHT22;11828;51.508;18.118;2023-08-01T14:26:50;36.10;33.40
23311;DHT22;11828;51.508;18.118;2023-08-01T14:29:18;36.10;33.50
23311;DHT22;11828;51.508;18.118;2023-08-01T14:31:49;36.00;33.50
23311;DHT22;11828;51.508;18.118;2023-08-01T14:34:18;35.80;33.00
23311;DHT22;11828;51.508;18.118;2023-08-01T14:36:44;35.60;33.20
23311;DHT22;11828;51.508;18.118;2023-08-01T14:39:10;35.50;33.40
23311;DHT22;11828;51.508;18.118;2023-08-01T14:41:36;35.40;33.60
23311;DHT22;11828;51.508;18.118;2023-08-01T14:44:02;35.30;33.50
23311;DHT22;11828;51.508;18.118;2023-08-01T14:46:29;35.20;33.90
23311;DHT22;11828;51.508;18.118;2023-08-01T14:48:55;35.10;34.20
23311;DHT22;11828;51.508;18.118;2023-08-01T14:51:21;35.00;34.50
23311;DHT22;11828;51.508;18.118;2023-08-01T14:53:47;34.90;34.60
23311;DHT22;11828;51.508;18.118;2023-08-01T14:56:13;34.90;34.40
23311;DHT22;11828;51.508;18.118;2023-08-01T14:58:39;34.80;34.50
23311;DHT22;11828;51.508;18.118;2023-08-01T15:01:16;34.70;34.60
23311;DHT22;11828;51.508;18.118;2023-08-01T15:03:44;34.70;34.80
23311;DHT22;11828;51.508;18.118;2023-08-01T15:06:10;34.50;34.70
23311;DHT22;11828;51.508;18.118;2023-08-01T15:08:38;34.50;35.10
23311;DHT22;11828;51.508;18.118;2023-08-01T15:11:05;34.60;35.10
23311;DHT22;11828;51.508;18.118;2023-08-01T15:13:32;34.50;35.10
23311;DHT22;11828;51.508;18.118;2023-08-01T15:15:59;34.40;35.20
23311;DHT22;11828;51.508;18.118;2023-08-01T15:18:26;34.30;35.20
23311;DHT22;11828;51.508;18.118;2023-08-01T15:20:53;34.20;35.40
23311;DHT22;11828;51.508;18.118;2023-08-01T15:23:20;34.20;35.40
23311;DHT22;11828;51.508;18.118;2023-08-01T15:25:56;34.00;35.40